메인 페이지
METAR-TAF:

METAR-TAF

공항 :

포트워스, 텍사스, 미국

위도: 32-58-24N, 경도: 097-19-05W, 고도: 220m

현재 날씨관측

예보는 12분 전, 22:53시(UTC)에 발표되었습니다.
9kt
온도 23°C
습도 73%
기압 1014 hPa
시정: 8.0km
고도 2400ft 상공 구름 조금
고도 3100ft 상공 구름 보통
고도 4700ft 상공 구름 많음
연무

METAR: KAFW 232253Z 17009KT 5SM HZ FEW024 SCT031 BKN047 23/18 A2993 RMK AO2 LTG DSNT SE AND S AND NW SLP125 T02280178

시각: 18:05 (23:05 UTC)

예보

예보는 2 시간 13분 전, 20:52시(UTC)에 발표되었습니다.
예보 대상 시간: 23일 21시부터 24일 18시까지 (UTC)
남남동11kt
시정: 10km
고도 3500ft 상공 구름 많음, 적란운.
시계 내 뇌우
24일 0000시부터 (UTC)
남동8kt
시정: 8.0km
고도 2500ft 상공 구름 많음, 적란운.
소나기, 시계 내 뇌우
일시적
24일 01시부터 24일 05시까지 (UTC)
시정: 3.2km
뇌우, 약한비
24일 0900시부터 (UTC)
남남동7kt
시정: 9.7km
고도 800ft 상공 구름 보통
고도 1500ft 상공 흐림
박무, 시계 내 소나기
24일 1200시부터 (UTC)
5kt
시정: 8.0km
고도 800ft 상공 구름 많음
고도 1500ft 상공 흐림, 적란운.
약한비, 시계 내 뇌우

TAF: KAFW 232052Z 2321/2418 16011KT P6SM VCTS BKN035CB FM240000 14008KT 5SM SHRA VCTS BKN025CB TEMPO 2401/2405 2SM -TSRA FM240900 16007KT 6SM BR VCSH SCT008 OVC015 FM241200 10005KT 5SM -RA VCTS BKN008 OVC015CB

4,000개 이상의 공항 관측 자료 및 예보 (METAR 및 TAF 보고).

지도상에서 검색 가능한 기상관측소가 노란 점과 빨간 점으로 표시되어 있습니다.

기상관측소 명을 보려면 표시 위로 마우스를 이동하세요.

날씨 관측과 예보를 보려면 클릭하세요.

지도 변경 : 확대하려면 엑스 표시가 있는 녹색 버튼, 축소하려면 빼기 표시가 있는 녹색 버튼, 다음 페이지의 지도를 보려면 녹색 화살표를 클릭하세요.


METAR-TAF: